sensor_id;sensor_type;location;lat;lon;timestamp;P1;durP1;ratioP1;P2;durP2;ratioP2
2173;SDS011;1093;51.424;11.764;2022-10-04T00:00:49;4.53;;;2.60;;
2173;SDS011;1093;51.424;11.764;2022-10-04T00:03:23;14.00;;;3.53;;
2173;SDS011;1093;51.424;11.764;2022-10-04T00:05:55;7.27;;;3.40;;
2173;SDS011;1093;51.424;11.764;2022-10-04T00:08:26;8.30;;;3.17;;
2173;SDS011;1093;51.424;11.764;2022-10-04T00:11:02;6.10;;;3.07;;
2173;SDS011;1093;51.424;11.764;2022-10-04T00:13:31;4.13;;;2.87;;
2173;SDS011;1093;51.424;11.764;2022-10-04T00:15:59;7.47;;;2.77;;
2173;SDS011;1093;51.424;11.764;2022-10-04T00:18:28;5.90;;;2.87;;
2173;SDS011;1093;51.424;11.764;2022-10-04T00:21:00;3.80;;;2.40;;
2173;SDS011;1093;51.424;11.764;2022-10-04T00:23:39;3.60;;;2.50;;
2173;SDS011;1093;51.424;11.764;2022-10-04T00:26:10;4.83;;;2.67;;
2173;SDS011;1093;51.424;11.764;2022-10-04T00:28:41;7.57;;;2.43;;
2173;SDS011;1093;51.424;11.764;2022-10-04T00:31:15;3.87;;;2.53;;
2173;SDS011;1093;51.424;11.764;2022-10-04T00:33:48;5.13;;;3.03;;
2173;SDS011;1093;51.424;11.764;2022-10-04T00:39:14;5.27;;;2.53;;
2173;SDS011;1093;51.424;11.764;2022-10-04T00:41:55;4.50;;;2.23;;
2173;SDS011;1093;51.424;11.764;2022-10-04T00:44:29;5.77;;;2.40;;
2173;SDS011;1093;51.424;11.764;2022-10-04T00:47:02;7.13;;;2.90;;
2173;SDS011;1093;51.424;11.764;2022-10-04T00:49:42;5.10;;;2.47;;
2173;SDS011;1093;51.424;11.764;2022-10-04T00:52:17;6.10;;;2.53;;
2173;SDS011;1093;51.424;11.764;2022-10-04T00:54:47;8.93;;;2.63;;
2173;SDS011;1093;51.424;11.764;2022-10-04T00:57:16;3.80;;;2.60;;
2173;SDS011;1093;51.424;11.764;2022-10-04T00:59:48;7.23;;;3.77;;
2173;SDS011;1093;51.424;11.764;2022-10-04T01:02:18;6.57;;;2.67;;
2173;SDS011;1093;51.424;11.764;2022-10-04T01:04:48;7.30;;;2.70;;
2173;SDS011;1093;51.424;11.764;2022-10-04T01:07:22;6.87;;;3.03;;
2173;SDS011;1093;51.424;11.764;2022-10-04T01:09:54;4.90;;;2.67;;
2173;SDS011;1093;51.424;11.764;2022-10-04T01:12:30;8.10;;;3.13;;
2173;SDS011;1093;51.424;11.764;2022-10-04T01:15:05;8.37;;;2.83;;
2173;SDS011;1093;51.424;11.764;2022-10-04T01:17:36;8.63;;;2.50;;
2173;SDS011;1093;51.424;11.764;2022-10-04T01:20:12;4.10;;;3.67;;
2173;SDS011;1093;51.424;11.764;2022-10-04T01:22:59;10.00;;;3.03;;
2173;SDS011;1093;51.424;11.764;2022-10-04T01:25:42;8.17;;;3.33;;
2173;SDS011;1093;51.424;11.764;2022-10-04T01:28:10;5.57;;;3.43;;
2173;SDS011;1093;51.424;11.764;2022-10-04T01:30:37;7.10;;;4.67;;
2173;SDS011;1093;51.424;11.764;2022-10-04T01:33:04;6.67;;;3.60;;
2173;SDS011;1093;51.424;11.764;2022-10-04T01:35:32;9.93;;;3.40;;
2173;SDS011;1093;51.424;11.764;2022-10-04T01:38:02;9.93;;;4.33;;
2173;SDS011;1093;51.424;11.764;2022-10-04T01:40:31;6.23;;;2.90;;
2173;SDS011;1093;51.424;11.764;2022-10-04T01:43:00;3.13;;;2.63;;
2173;SDS011;1093;51.424;11.764;2022-10-04T01:45:31;7.50;;;4.67;;
2173;SDS011;1093;51.424;11.764;2022-10-04T01:48:04;8.30;;;3.20;;
2173;SDS011;1093;51.424;11.764;2022-10-04T01:50:36;6.10;;;3.10;;
2173;SDS011;1093;51.424;11.764;2022-10-04T01:53:09;4.53;;;2.93;;
2173;SDS011;1093;51.424;11.764;2022-10-04T01:55:40;5.40;;;2.90;;
2173;SDS011;1093;51.424;11.764;2022-10-04T01:58:13;6.43;;;3.23;;
2173;SDS011;1093;51.424;11.764;2022-10-04T02:00:45;7.30;;;3.30;;
2173;SDS011;1093;51.424;11.764;2022-10-04T02:03:16;10.97;;;2.93;;
2173;SDS011;1093;51.424;11.764;2022-10-04T02:05:50;4.90;;;3.43;;
2173;SDS011;1093;51.424;11.764;2022-10-04T02:08:23;6.10;;;3.80;;
2173;SDS011;1093;51.424;11.764;2022-10-04T02:10:52;9.53;;;3.53;;
2173;SDS011;1093;51.424;11.764;2022-10-04T02:13:20;9.47;;;4.03;;
2173;SDS011;1093;51.424;11.764;2022-10-04T02:15:51;7.80;;;3.53;;
2173;SDS011;1093;51.424;11.764;2022-10-04T02:18:19;9.10;;;3.30;;
2173;SDS011;1093;51.424;11.764;2022-10-04T02:20:47;6.57;;;3.67;;
2173;SDS011;1093;51.424;11.764;2022-10-04T02:23:15;8.97;;;2.90;;
2173;SDS011;1093;51.424;11.764;2022-10-04T02:25:46;6.97;;;3.10;;
2173;SDS011;1093;51.424;11.764;2022-10-04T02:28:13;6.27;;;3.17;;
2173;SDS011;1093;51.424;11.764;2022-10-04T02:30:43;12.97;;;4.00;;
2173;SDS011;1093;51.424;11.764;2022-10-04T02:33:34;5.00;;;3.40;;
2173;SDS011;1093;51.424;11.764;2022-10-04T02:36:04;5.87;;;3.53;;
2173;SDS011;1093;51.424;11.764;2022-10-04T02:38:33;4.13;;;3.37;;
2173;SDS011;1093;51.424;11.764;2022-10-04T02:41:08;7.40;;;3.47;;
2173;SDS011;1093;51.424;11.764;2022-10-04T02:43:42;9.63;;;3.77;;
2173;SDS011;1093;51.424;11.764;2022-10-04T02:46:16;9.10;;;3.67;;
2173;SDS011;1093;51.424;11.764;2022-10-04T02:48:50;6.13;;;3.40;;
2173;SDS011;1093;51.424;11.764;2022-10-04T02:51:21;7.07;;;3.50;;
2173;SDS011;1093;51.424;11.764;2022-10-04T02:53:54;11.97;;;3.50;;
2173;SDS011;1093;51.424;11.764;2022-10-04T02:56:28;4.70;;;2.90;;
2173;SDS011;1093;51.424;11.764;2022-10-04T02:58:59;7.10;;;3.20;;
2173;SDS011;1093;51.424;11.764;2022-10-04T03:01:34;11.37;;;3.20;;
2173;SDS011;1093;51.424;11.764;2022-10-04T03:04:06;7.20;;;4.40;;
2173;SDS011;1093;51.424;11.764;2022-10-04T03:06:37;5.30;;;3.23;;
2173;SDS011;1093;51.424;11.764;2022-10-04T03:09:04;8.37;;;4.53;;
2173;SDS011;1093;51.424;11.764;2022-10-04T03:11:34;8.33;;;4.47;;
2173;SDS011;1093;51.424;11.764;2022-10-04T03:14:03;10.57;;;3.10;;
2173;SDS011;1093;51.424;11.764;2022-10-04T03:16:34;11.07;;;4.30;;
2173;SDS011;1093;51.424;11.764;2022-10-04T03:19:03;6.97;;;3.63;;
2173;SDS011;1093;51.424;11.764;2022-10-04T03:21:32;4.33;;;3.20;;
2173;SDS011;1093;51.424;11.764;2022-10-04T03:24:00;5.10;;;2.60;;
2173;SDS011;1093;51.424;11.764;2022-10-04T03:26:31;9.37;;;4.07;;
2173;SDS011;1093;51.424;11.764;2022-10-04T03:29:05;5.30;;;3.20;;
2173;SDS011;1093;51.424;11.764;2022-10-04T03:31:35;8.43;;;3.93;;
2173;SDS011;1093;51.424;11.764;2022-10-04T03:34:05;7.23;;;3.30;;
2173;SDS011;1093;51.424;11.764;2022-10-04T03:36:40;6.93;;;3.20;;
2173;SDS011;1093;51.424;11.764;2022-10-04T03:39:08;10.13;;;3.37;;
2173;SDS011;1093;51.424;11.764;2022-10-04T03:41:36;11.63;;;4.03;;
2173;SDS011;1093;51.424;11.764;2022-10-04T03:44:07;11.50;;;4.00;;
2173;SDS011;1093;51.424;11.764;2022-10-04T03:46:41;11.67;;;3.70;;
2173;SDS011;1093;51.424;11.764;2022-10-04T03:49:10;9.90;;;3.40;;
2173;SDS011;1093;51.424;11.764;2022-10-04T03:51:41;7.03;;;3.27;;
2173;SDS011;1093;51.424;11.764;2022-10-04T03:54:12;7.17;;;3.90;;
2173;SDS011;1093;51.424;11.764;2022-10-04T03:56:44;5.77;;;3.10;;
2173;SDS011;1093;51.424;11.764;2022-10-04T03:59:15;13.77;;;4.70;;
2173;SDS011;1093;51.424;11.764;2022-10-04T04:01:43;14.73;;;4.33;;
2173;SDS011;1093;51.424;11.764;2022-10-04T04:04:18;10.10;;;4.67;;
2173;SDS011;1093;51.424;11.764;2022-10-04T04:06:50;5.50;;;3.40;;
2173;SDS011;1093;51.424;11.764;2022-10-04T04:09:29;4.50;;;3.00;;
2173;SDS011;1093;51.424;11.764;2022-10-04T04:12:05;11.07;;;3.33;;
2173;SDS011;1093;51.424;11.764;2022-10-04T04:14:40;14.20;;;3.80;;
2173;SDS011;1093;51.424;11.764;2022-10-04T04:17:29;11.10;;;3.77;;
2173;SDS011;1093;51.424;11.764;2022-10-04T04:20:02;9.13;;;3.30;;
2173;SDS011;1093;51.424;11.764;2022-10-04T04:22:32;5.00;;;3.17;;
2173;SDS011;1093;51.424;11.764;2022-10-04T04:25:01;5.03;;;3.17;;
2173;SDS011;1093;51.424;11.764;2022-10-04T04:27:34;5.80;;;3.70;;
2173;SDS011;1093;51.424;11.764;2022-10-04T04:30:07;7.73;;;3.83;;
2173;SDS011;1093;51.424;11.764;2022-10-04T04:32:39;7.97;;;4.47;;
2173;SDS011;1093;51.424;11.764;2022-10-04T04:35:19;7.10;;;3.30;;
2173;SDS011;1093;51.424;11.764;2022-10-04T04:38:01;15.73;;;5.50;;
2173;SDS011;1093;51.424;11.764;2022-10-04T04:40:38;7.93;;;4.30;;
2173;SDS011;1093;51.424;11.764;2022-10-04T04:43:08;7.03;;;3.30;;
2173;SDS011;1093;51.424;11.764;2022-10-04T04:45:41;14.33;;;3.90;;
2173;SDS011;1093;51.424;11.764;2022-10-04T04:48:10;9.40;;;4.17;;
2173;SDS011;1093;51.424;11.764;2022-10-04T04:50:39;7.27;;;4.77;;
2173;SDS011;1093;51.424;11.764;2022-10-04T04:53:08;5.20;;;3.27;;
2173;SDS011;1093;51.424;11.764;2022-10-04T04:55:42;6.50;;;4.10;;
2173;SDS011;1093;51.424;11.764;2022-10-04T04:58:13;6.57;;;3.90;;
2173;SDS011;1093;51.424;11.764;2022-10-04T05:00:47;8.30;;;3.97;;
2173;SDS011;1093;51.424;11.764;2022-10-04T05:03:19;8.70;;;3.03;;
2173;SDS011;1093;51.424;11.764;2022-10-04T05:05:48;10.87;;;4.90;;
2173;SDS011;1093;51.424;11.764;2022-10-04T05:08:17;7.90;;;3.87;;
2173;SDS011;1093;51.424;11.764;2022-10-04T05:10:48;5.60;;;3.27;;
2173;SDS011;1093;51.424;11.764;2022-10-04T05:13:19;7.07;;;3.23;;
2173;SDS011;1093;51.424;11.764;2022-10-04T05:15:52;9.10;;;3.60;;
2173;SDS011;1093;51.424;11.764;2022-10-04T05:18:26;7.23;;;3.60;;
2173;SDS011;1093;51.424;11.764;2022-10-04T05:20:56;8.23;;;4.20;;
2173;SDS011;1093;51.424;11.764;2022-10-04T05:23:28;10.83;;;3.43;;
2173;SDS011;1093;51.424;11.764;2022-10-04T05:25:54;4.10;;;3.70;;
2173;SDS011;1093;51.424;11.764;2022-10-04T05:28:24;6.00;;;3.77;;
2173;SDS011;1093;51.424;11.764;2022-10-04T05:30:55;9.47;;;3.33;;
2173;SDS011;1093;51.424;11.764;2022-10-04T05:33:38;10.23;;;3.80;;
2173;SDS011;1093;51.424;11.764;2022-10-04T05:36:33;9.10;;;3.73;;
2173;SDS011;1093;51.424;11.764;2022-10-04T05:39:21;6.87;;;3.50;;
2173;SDS011;1093;51.424;11.764;2022-10-04T05:41:55;10.67;;;3.77;;
2173;SDS011;1093;51.424;11.764;2022-10-04T05:44:26;8.00;;;4.00;;
2173;SDS011;1093;51.424;11.764;2022-10-04T05:46:57;10.13;;;3.77;;
2173;SDS011;1093;51.424;11.764;2022-10-04T05:49:27;8.03;;;3.03;;
2173;SDS011;1093;51.424;11.764;2022-10-04T05:51:59;5.43;;;3.00;;
2173;SDS011;1093;51.424;11.764;2022-10-04T05:54:28;4.87;;;3.70;;
2173;SDS011;1093;51.424;11.764;2022-10-04T05:57:09;7.80;;;3.97;;
2173;SDS011;1093;51.424;11.764;2022-10-04T05:59:53;15.77;;;5.00;;
2173;SDS011;1093;51.424;11.764;2022-10-04T06:02:53;11.40;;;3.90;;
2173;SDS011;1093;51.424;11.764;2022-10-04T06:05:46;7.70;;;4.40;;
2173;SDS011;1093;51.424;11.764;2022-10-04T06:08:18;6.80;;;3.40;;
2173;SDS011;1093;51.424;11.764;2022-10-04T06:11:01;8.93;;;3.80;;
2173;SDS011;1093;51.424;11.764;2022-10-04T06:16:31;3.80;;;2.97;;
2173;SDS011;1093;51.424;11.764;2022-10-04T06:22:05;6.40;;;2.93;;
2173;SDS011;1093;51.424;11.764;2022-10-04T06:24:40;9.20;;;3.77;;
2173;SDS011;1093;51.424;11.764;2022-10-04T06:27:10;6.23;;;3.70;;
2173;SDS011;1093;51.424;11.764;2022-10-04T06:29:42;6.07;;;4.17;;
2173;SDS011;1093;51.424;11.764;2022-10-04T06:32:20;9.80;;;4.10;;
2173;SDS011;1093;51.424;11.764;2022-10-04T06:35:18;11.93;;;4.47;;
2173;SDS011;1093;51.424;11.764;2022-10-04T06:41:15;5.63;;;3.40;;
2173;SDS011;1093;51.424;11.764;2022-10-04T06:43:54;6.83;;;4.67;;
2173;SDS011;1093;51.424;11.764;2022-10-04T06:46:52;8.93;;;4.00;;
2173;SDS011;1093;51.424;11.764;2022-10-04T06:49:37;7.33;;;4.50;;
2173;SDS011;1093;51.424;11.764;2022-10-04T06:52:20;4.70;;;3.60;;
2173;SDS011;1093;51.424;11.764;2022-10-04T06:55:13;5.20;;;3.20;;
2173;SDS011;1093;51.424;11.764;2022-10-04T06:58:06;7.03;;;3.70;;
2173;SDS011;1093;51.424;11.764;2022-10-04T07:00:50;11.20;;;4.00;;
2173;SDS011;1093;51.424;11.764;2022-10-04T07:03:23;4.93;;;3.00;;
2173;SDS011;1093;51.424;11.764;2022-10-04T07:05:54;12.43;;;3.60;;
2173;SDS011;1093;51.424;11.764;2022-10-04T07:08:27;8.27;;;4.40;;
2173;SDS011;1093;51.424;11.764;2022-10-04T07:11:04;10.10;;;3.90;;
2173;SDS011;1093;51.424;11.764;2022-10-04T07:13:40;9.97;;;3.90;;
2173;SDS011;1093;51.424;11.764;2022-10-04T07:16:20;5.93;;;3.63;;
2173;SDS011;1093;51.424;11.764;2022-10-04T07:18:56;11.83;;;4.23;;
2173;SDS011;1093;51.424;11.764;2022-10-04T07:21:32;5.90;;;3.70;;
2173;SDS011;1093;51.424;11.764;2022-10-04T07:24:08;8.70;;;4.60;;
2173;SDS011;1093;51.424;11.764;2022-10-04T07:26:42;11.97;;;3.83;;
2173;SDS011;1093;51.424;11.764;2022-10-04T07:29:13;10.20;;;3.47;;
2173;SDS011;1093;51.424;11.764;2022-10-04T07:31:48;6.13;;;3.93;;
2173;SDS011;1093;51.424;11.764;2022-10-04T07:34:20;8.10;;;4.00;;
2173;SDS011;1093;51.424;11.764;2022-10-04T07:36:50;8.53;;;3.50;;
2173;SDS011;1093;51.424;11.764;2022-10-04T07:39:21;6.63;;;4.10;;
2173;SDS011;1093;51.424;11.764;2022-10-04T07:41:52;9.23;;;4.13;;
2173;SDS011;1093;51.424;11.764;2022-10-04T07:44:29;10.60;;;4.00;;
2173;SDS011;1093;51.424;11.764;2022-10-04T07:47:01;4.93;;;3.50;;
2173;SDS011;1093;51.424;11.764;2022-10-04T07:49:38;4.87;;;3.53;;
2173;SDS011;1093;51.424;11.764;2022-10-04T07:52:21;7.83;;;3.73;;
2173;SDS011;1093;51.424;11.764;2022-10-04T07:55:00;11.40;;;4.40;;
2173;SDS011;1093;51.424;11.764;2022-10-04T07:57:40;11.00;;;4.47;;
2173;SDS011;1093;51.424;11.764;2022-10-04T08:00:16;8.93;;;4.03;;
2173;SDS011;1093;51.424;11.764;2022-10-04T08:02:49;6.77;;;3.80;;
2173;SDS011;1093;51.424;11.764;2022-10-04T08:05:26;8.80;;;3.33;;
2173;SDS011;1093;51.424;11.764;2022-10-04T08:08:04;5.40;;;3.93;;
2173;SDS011;1093;51.424;11.764;2022-10-04T08:10:48;7.47;;;3.20;;
2173;SDS011;1093;51.424;11.764;2022-10-04T08:13:22;11.77;;;4.30;;
2173;SDS011;1093;51.424;11.764;2022-10-04T08:15:58;11.50;;;4.17;;
2173;SDS011;1093;51.424;11.764;2022-10-04T08:18:31;5.33;;;4.10;;
2173;SDS011;1093;51.424;11.764;2022-10-04T08:21:08;10.13;;;3.50;;
2173;SDS011;1093;51.424;11.764;2022-10-04T08:23:45;21.10;;;3.70;;
2173;SDS011;1093;51.424;11.764;2022-10-04T08:26:35;14.33;;;4.10;;
2173;SDS011;1093;51.424;11.764;2022-10-04T08:29:18;10.33;;;3.57;;
2173;SDS011;1093;51.424;11.764;2022-10-04T08:32:10;8.60;;;3.37;;
2173;SDS011;1093;51.424;11.764;2022-10-04T08:34:58;10.67;;;3.60;;
2173;SDS011;1093;51.424;11.764;2022-10-04T08:37:38;8.20;;;3.27;;
2173;SDS011;1093;51.424;11.764;2022-10-04T08:40:34;12.47;;;3.30;;
2173;SDS011;1093;51.424;11.764;2022-10-04T08:43:34;11.20;;;3.40;;
2173;SDS011;1093;51.424;11.764;2022-10-04T08:49:43;5.97;;;3.20;;
2173;SDS011;1093;51.424;11.764;2022-10-04T08:52:31;9.60;;;3.37;;
2173;SDS011;1093;51.424;11.764;2022-10-04T08:55:32;11.87;;;3.90;;
2173;SDS011;1093;51.424;11.764;2022-10-04T08:58:15;10.70;;;3.03;;
2173;SDS011;1093;51.424;11.764;2022-10-04T09:01:08;4.00;;;3.33;;
2173;SDS011;1093;51.424;11.764;2022-10-04T09:03:57;5.83;;;4.30;;
2173;SDS011;1093;51.424;11.764;2022-10-04T09:06:53;6.37;;;3.27;;
2173;SDS011;1093;51.424;11.764;2022-10-04T09:12:34;9.60;;;4.50;;
2173;SDS011;1093;51.424;11.764;2022-10-04T09:15:22;8.20;;;4.33;;
2173;SDS011;1093;51.424;11.764;2022-10-04T09:18:04;6.27;;;3.97;;
2173;SDS011;1093;51.424;11.764;2022-10-04T09:20:49;7.57;;;3.80;;
2173;SDS011;1093;51.424;11.764;2022-10-04T09:26:20;6.67;;;3.50;;
2173;SDS011;1093;51.424;11.764;2022-10-04T09:32:03;5.30;;;3.47;;
2173;SDS011;1093;51.424;11.764;2022-10-04T09:35:05;6.77;;;2.57;;
2173;SDS011;1093;51.424;11.764;2022-10-04T09:37:54;5.07;;;3.23;;
2173;SDS011;1093;51.424;11.764;2022-10-04T09:43:55;3.00;;;2.60;;
2173;SDS011;1093;51.424;11.764;2022-10-04T09:47:02;8.87;;;3.17;;
2173;SDS011;1093;51.424;11.764;2022-10-04T09:49:50;10.43;;;3.03;;
2173;SDS011;1093;51.424;11.764;2022-10-04T09:52:39;3.53;;;2.90;;
2173;SDS011;1093;51.424;11.764;2022-10-04T09:55:18;6.20;;;2.77;;
2173;SDS011;1093;51.424;11.764;2022-10-04T09:58:01;7.40;;;3.10;;
2173;SDS011;1093;51.424;11.764;2022-10-04T10:00:54;6.23;;;3.00;;
2173;SDS011;1093;51.424;11.764;2022-10-04T10:03:34;7.23;;;2.93;;
2173;SDS011;1093;51.424;11.764;2022-10-04T10:06:35;8.13;;;3.23;;
2173;SDS011;1093;51.424;11.764;2022-10-04T10:09:34;5.30;;;3.30;;
2173;SDS011;1093;51.424;11.764;2022-10-04T10:12:35;4.60;;;2.83;;
2173;SDS011;1093;51.424;11.764;2022-10-04T10:15:39;4.83;;;2.77;;
2173;SDS011;1093;51.424;11.764;2022-10-04T10:18:16;10.77;;;3.03;;
2173;SDS011;1093;51.424;11.764;2022-10-04T10:20:54;6.03;;;2.93;;
2173;SDS011;1093;51.424;11.764;2022-10-04T10:23:47;5.50;;;3.30;;
2173;SDS011;1093;51.424;11.764;2022-10-04T10:26:48;10.60;;;3.63;;
2173;SDS011;1093;51.424;11.764;2022-10-04T10:29:30;4.30;;;2.57;;
2173;SDS011;1093;51.424;11.764;2022-10-04T10:35:33;5.13;;;4.40;;
2173;SDS011;1093;51.424;11.764;2022-10-04T10:38:22;9.20;;;3.83;;
2173;SDS011;1093;51.424;11.764;2022-10-04T10:44:16;11.13;;;3.00;;
2173;SDS011;1093;51.424;11.764;2022-10-04T10:46:59;5.50;;;2.80;;
2173;SDS011;1093;51.424;11.764;2022-10-04T10:49:41;6.13;;;4.20;;
2173;SDS011;1093;51.424;11.764;2022-10-04T10:55:31;4.43;;;2.77;;
2173;SDS011;1093;51.424;11.764;2022-10-04T10:58:27;5.33;;;2.60;;
2173;SDS011;1093;51.424;11.764;2022-10-04T11:04:25;6.73;;;3.10;;
2173;SDS011;1093;51.424;11.764;2022-10-04T11:07:19;9.80;;;3.70;;
2173;SDS011;1093;51.424;11.764;2022-10-04T11:10:21;11.93;;;3.30;;
2173;SDS011;1093;51.424;11.764;2022-10-04T11:13:35;6.00;;;2.53;;
2173;SDS011;1093;51.424;11.764;2022-10-04T11:16:34;4.97;;;2.73;;
2173;SDS011;1093;51.424;11.764;2022-10-04T11:22:43;7.03;;;3.47;;
2173;SDS011;1093;51.424;11.764;2022-10-04T11:28:36;13.53;;;3.53;;
2173;SDS011;1093;51.424;11.764;2022-10-04T11:34:29;7.47;;;2.50;;
2173;SDS011;1093;51.424;11.764;2022-10-04T11:37:25;9.53;;;3.10;;
2173;SDS011;1093;51.424;11.764;2022-10-04T11:40:17;4.20;;;2.10;;
2173;SDS011;1093;51.424;11.764;2022-10-04T11:43:15;9.10;;;2.90;;
2173;SDS011;1093;51.424;11.764;2022-10-04T11:46:03;5.37;;;2.23;;
2173;SDS011;1093;51.424;11.764;2022-10-04T11:48:42;3.47;;;2.20;;
2173;SDS011;1093;51.424;11.764;2022-10-04T11:51:39;5.73;;;2.37;;
2173;SDS011;1093;51.424;11.764;2022-10-04T11:54:55;3.70;;;2.10;;
2173;SDS011;1093;51.424;11.764;2022-10-04T11:57:55;7.67;;;2.93;;
2173;SDS011;1093;51.424;11.764;2022-10-04T12:00:29;2.57;;;1.90;;
2173;SDS011;1093;51.424;11.764;2022-10-04T12:03:26;3.73;;;2.30;;
2173;SDS011;1093;51.424;11.764;2022-10-04T12:06:16;5.17;;;2.37;;
2173;SDS011;1093;51.424;11.764;2022-10-04T12:09:02;7.93;;;2.60;;
2173;SDS011;1093;51.424;11.764;2022-10-04T12:14:56;4.37;;;2.27;;
2173;SDS011;1093;51.424;11.764;2022-10-04T12:17:48;2.63;;;1.80;;
2173;SDS011;1093;51.424;11.764;2022-10-04T12:23:47;4.27;;;1.57;;
2173;SDS011;1093;51.424;11.764;2022-10-04T12:26:32;4.53;;;2.00;;
2173;SDS011;1093;51.424;11.764;2022-10-04T12:29:31;2.00;;;1.43;;
2173;SDS011;1093;51.424;11.764;2022-10-04T12:32:25;5.57;;;1.63;;
2173;SDS011;1093;51.424;11.764;2022-10-04T12:35:01;2.40;;;1.67;;
2173;SDS011;1093;51.424;11.764;2022-10-04T12:37:38;5.20;;;1.80;;
2173;SDS011;1093;51.424;11.764;2022-10-04T12:40:30;3.30;;;1.73;;
2173;SDS011;1093;51.424;11.764;2022-10-04T12:43:07;3.07;;;2.77;;
2173;SDS011;1093;51.424;11.764;2022-10-04T12:45:43;7.00;;;2.00;;
2173;SDS011;1093;51.424;11.764;2022-10-04T12:48:26;2.60;;;2.23;;
2173;SDS011;1093;51.424;11.764;2022-10-04T12:51:10;4.33;;;2.40;;
2173;SDS011;1093;51.424;11.764;2022-10-04T12:53:51;11.60;;;2.03;;
2173;SDS011;1093;51.424;11.764;2022-10-04T12:56:35;2.37;;;2.17;;
2173;SDS011;1093;51.424;11.764;2022-10-04T12:59:14;4.93;;;2.23;;
2173;SDS011;1093;51.424;11.764;2022-10-04T13:02:03;2.10;;;1.73;;
2173;SDS011;1093;51.424;11.764;2022-10-04T13:04:40;4.73;;;2.30;;
2173;SDS011;1093;51.424;11.764;2022-10-04T13:07:25;2.73;;;2.07;;
2173;SDS011;1093;51.424;11.764;2022-10-04T13:10:11;3.47;;;2.50;;
2173;SDS011;1093;51.424;11.764;2022-10-04T13:12:59;6.50;;;3.20;;
2173;SDS011;1093;51.424;11.764;2022-10-04T13:15:51;3.90;;;2.40;;
2173;SDS011;1093;51.424;11.764;2022-10-04T13:18:27;6.37;;;2.43;;
2173;SDS011;1093;51.424;11.764;2022-10-04T13:21:00;4.23;;;2.10;;
2173;SDS011;1093;51.424;11.764;2022-10-04T13:23:33;3.80;;;2.03;;
2173;SDS011;1093;51.424;11.764;2022-10-04T13:26:11;4.27;;;2.50;;
2173;SDS011;1093;51.424;11.764;2022-10-04T13:28:58;3.90;;;3.07;;
2173;SDS011;1093;51.424;11.764;2022-10-04T13:31:30;4.20;;;2.50;;
2173;SDS011;1093;51.424;11.764;2022-10-04T13:34:04;3.93;;;2.47;;
2173;SDS011;1093;51.424;11.764;2022-10-04T13:36:46;3.17;;;2.10;;
2173;SDS011;1093;51.424;11.764;2022-10-04T13:39:25;4.77;;;2.23;;
2173;SDS011;1093;51.424;11.764;2022-10-04T13:42:17;4.10;;;2.60;;
2173;SDS011;1093;51.424;11.764;2022-10-04T13:45:09;4.50;;;2.17;;
2173;SDS011;1093;51.424;11.764;2022-10-04T13:50:51;5.10;;;2.70;;
2173;SDS011;1093;51.424;11.764;2022-10-04T13:53:30;5.67;;;2.50;;
2173;SDS011;1093;51.424;11.764;2022-10-04T13:59:26;10.20;;;3.13;;
2173;SDS011;1093;51.424;11.764;2022-10-04T14:05:11;2.40;;;2.13;;
2173;SDS011;1093;51.424;11.764;2022-10-04T14:08:07;4.00;;;2.53;;
2173;SDS011;1093;51.424;11.764;2022-10-04T14:10:59;5.07;;;2.43;;
2173;SDS011;1093;51.424;11.764;2022-10-04T14:13:52;7.30;;;2.90;;
2173;SDS011;1093;51.424;11.764;2022-10-04T14:16:48;4.07;;;2.23;;
2173;SDS011;1093;51.424;11.764;2022-10-04T14:19:46;2.50;;;2.30;;
2173;SDS011;1093;51.424;11.764;2022-10-04T14:28:35;5.13;;;2.70;;
2173;SDS011;1093;51.424;11.764;2022-10-04T14:31:35;6.33;;;3.57;;
2173;SDS011;1093;51.424;11.764;2022-10-04T14:34:32;3.50;;;2.07;;
2173;SDS011;1093;51.424;11.764;2022-10-04T14:37:23;4.70;;;2.17;;
2173;SDS011;1093;51.424;11.764;2022-10-04T14:43:19;4.77;;;2.40;;
2173;SDS011;1093;51.424;11.764;2022-10-04T14:46:10;2.90;;;2.40;;
2173;SDS011;1093;51.424;11.764;2022-10-04T14:48:47;5.30;;;2.23;;
2173;SDS011;1093;51.424;11.764;2022-10-04T14:54:33;3.57;;;1.87;;
2173;SDS011;1093;51.424;11.764;2022-10-04T14:57:09;5.90;;;2.67;;
2173;SDS011;1093;51.424;11.764;2022-10-04T15:02:53;3.90;;;2.33;;
2173;SDS011;1093;51.424;11.764;2022-10-04T15:05:41;5.33;;;2.13;;
2173;SDS011;1093;51.424;11.764;2022-10-04T15:08:28;2.77;;;2.30;;
2173;SDS011;1093;51.424;11.764;2022-10-04T15:11:07;3.97;;;2.70;;
2173;SDS011;1093;51.424;11.764;2022-10-04T15:13:40;3.33;;;2.60;;
2173;SDS011;1093;51.424;11.764;2022-10-04T15:16:21;2.90;;;2.50;;
2173;SDS011;1093;51.424;11.764;2022-10-04T15:19:00;3.07;;;1.97;;
2173;SDS011;1093;51.424;11.764;2022-10-04T15:21:44;4.47;;;2.23;;
2173;SDS011;1093;51.424;11.764;2022-10-04T15:24:24;2.80;;;1.70;;
2173;SDS011;1093;51.424;11.764;2022-10-04T15:29:59;2.43;;;1.80;;
2173;SDS011;1093;51.424;11.764;2022-10-04T15:32:35;3.23;;;2.20;;
2173;SDS011;1093;51.424;11.764;2022-10-04T15:35:13;6.43;;;2.00;;
2173;SDS011;1093;51.424;11.764;2022-10-04T15:37:47;8.07;;;2.17;;
2173;SDS011;1093;51.424;11.764;2022-10-04T15:40:27;3.13;;;2.70;;
2173;SDS011;1093;51.424;11.764;2022-10-04T15:43:10;2.80;;;2.10;;
2173;SDS011;1093;51.424;11.764;2022-10-04T15:46:03;3.03;;;2.13;;
2173;SDS011;1093;51.424;11.764;2022-10-04T15:48:52;4.93;;;1.83;;
2173;SDS011;1093;51.424;11.764;2022-10-04T15:51:38;2.23;;;1.90;;
2173;SDS011;1093;51.424;11.764;2022-10-04T15:54:31;4.87;;;2.40;;
2173;SDS011;1093;51.424;11.764;2022-10-04T15:57:31;5.53;;;2.37;;
2173;SDS011;1093;51.424;11.764;2022-10-04T16:00:09;4.87;;;2.00;;
2173;SDS011;1093;51.424;11.764;2022-10-04T16:05:39;4.73;;;2.93;;
2173;SDS011;1093;51.424;11.764;2022-10-04T16:08:21;3.47;;;2.00;;
2173;SDS011;1093;51.424;11.764;2022-10-04T16:11:02;3.67;;;2.40;;
2173;SDS011;1093;51.424;11.764;2022-10-04T16:13:58;3.50;;;1.70;;
2173;SDS011;1093;51.424;11.764;2022-10-04T16:16:49;2.57;;;2.23;;
2173;SDS011;1093;51.424;11.764;2022-10-04T16:22:30;2.53;;;1.63;;
2173;SDS011;1093;51.424;11.764;2022-10-04T16:24:58;5.03;;;2.10;;
2173;SDS011;1093;51.424;11.764;2022-10-04T16:30:38;4.67;;;2.33;;
2173;SDS011;1093;51.424;11.764;2022-10-04T16:33:19;4.77;;;1.90;;
2173;SDS011;1093;51.424;11.764;2022-10-04T16:36:04;4.60;;;1.80;;
2173;SDS011;1093;51.424;11.764;2022-10-04T16:38:36;5.10;;;2.00;;
2173;SDS011;1093;51.424;11.764;2022-10-04T16:41:34;7.03;;;2.03;;
2173;SDS011;1093;51.424;11.764;2022-10-04T16:44:08;7.17;;;2.10;;
2173;SDS011;1093;51.424;11.764;2022-10-04T16:46:51;3.43;;;2.33;;
2173;SDS011;1093;51.424;11.764;2022-10-04T16:49:23;3.07;;;1.63;;
2173;SDS011;1093;51.424;11.764;2022-10-04T16:52:04;4.20;;;2.50;;
2173;SDS011;1093;51.424;11.764;2022-10-04T16:55:00;3.07;;;1.87;;
2173;SDS011;1093;51.424;11.764;2022-10-04T16:57:44;5.23;;;2.90;;
2173;SDS011;1093;51.424;11.764;2022-10-04T17:00:31;2.03;;;1.80;;
2173;SDS011;1093;51.424;11.764;2022-10-04T17:03:05;3.83;;;2.27;;
2173;SDS011;1093;51.424;11.764;2022-10-04T17:05:44;3.60;;;2.00;;
2173;SDS011;1093;51.424;11.764;2022-10-04T17:08:43;2.60;;;2.27;;
2173;SDS011;1093;51.424;11.764;2022-10-04T17:11:26;3.80;;;2.10;;
2173;SDS011;1093;51.424;11.764;2022-10-04T17:14:00;6.80;;;2.43;;
2173;SDS011;1093;51.424;11.764;2022-10-04T17:16:35;3.40;;;2.90;;
2173;SDS011;1093;51.424;11.764;2022-10-04T17:19:18;3.87;;;2.80;;
2173;SDS011;1093;51.424;11.764;2022-10-04T17:21:56;2.37;;;1.90;;
2173;SDS011;1093;51.424;11.764;2022-10-04T17:24:35;2.60;;;2.20;;
2173;SDS011;1093;51.424;11.764;2022-10-04T17:27:17;3.60;;;2.70;;
2173;SDS011;1093;51.424;11.764;2022-10-04T17:30:01;5.77;;;2.47;;
2173;SDS011;1093;51.424;11.764;2022-10-04T17:32:42;3.10;;;2.27;;
2173;SDS011;1093;51.424;11.764;2022-10-04T17:35:30;4.90;;;2.37;;
2173;SDS011;1093;51.424;11.764;2022-10-04T17:38:24;4.60;;;2.70;;
2173;SDS011;1093;51.424;11.764;2022-10-04T17:40:58;4.73;;;2.40;;
2173;SDS011;1093;51.424;11.764;2022-10-04T17:43:39;5.73;;;3.03;;
2173;SDS011;1093;51.424;11.764;2022-10-04T17:46:26;3.43;;;2.90;;
2173;SDS011;1093;51.424;11.764;2022-10-04T17:49:01;7.10;;;2.70;;